Terminal Aerodrome Forecast
Issued by NWS Kansas City/Pleasant Hill, MO

Home | Current Version | Previous Version | Text Only | Print | Product List | Glossary On
Versions: 1 2 3 4 5 6 7 8 9 10 11 12 13 14 15 16
000
FTUS43 KEAX 291500 AAA
TAFMCI
TAF AMD
KMCI 291510Z 2915/3012 21013KT 6SM -RA OVC060
      TEMPO 2917/2920 5SM -RA BKN015
     FM292000 22010KT P6SM SCT035 BKN070
     FM300300 32012KT P6SM VCTS BKN035CB=

USA.gov is the U.S. government's official web portal to all federal, state and local government web resources and services.